Webster, Nebraska
Current Conditions -  °F | °C
As of 6:19 AM on Thursday 29 Jan 2015 (Local Time) from KODX Reporting Station
Overcast Overcast  
Wind Chill: 22°   Ceiling: 3100
Heat Index: 35°   Visibility: 10mi
Dew Point: 24°   Wind: 26mph
Humidity: 64%   Direction: 330°NNW
Pressure: 30.31"   Gusts: 38mph
Location:  41.3026°N, 99.0141°W
Report Text: KODX 291219Z AUTO 33023G33KT 10SM OVC031 02/M04 A3031 RMK AO2 PK WND 34038/1157 T00171044 $
Loading
Personal Weather Stations






























Interactive Weather Map New forecast layout! Learn more

10-Day Weather Forecast

Advertisements
Track Severe Weather on mobile